createdAt,value
2018-03-26T00:00:40.115Z,40.20
2018-03-26T00:03:07.525Z,40.70
2018-03-26T00:05:34.938Z,39.27
2018-03-26T00:08:02.834Z,31.27
2018-03-26T00:10:30.302Z,33.40
2018-03-26T00:12:57.754Z,36.70
2018-03-26T00:15:25.166Z,33.85
2018-03-26T00:17:52.651Z,30.00
2018-03-26T00:20:20.210Z,32.77
2018-03-26T00:22:47.620Z,31.67
2018-03-26T00:25:15.035Z,34.10
2018-03-26T00:27:42.502Z,37.80
2018-03-26T00:30:09.921Z,33.60
2018-03-26T00:32:37.329Z,33.60
2018-03-26T00:35:04.752Z,34.95
2018-03-26T00:37:32.163Z,34.67
2018-03-26T00:39:59.581Z,42.50
2018-03-26T00:42:27.162Z,39.80
2018-03-26T00:44:54.648Z,37.10
2018-03-26T00:47:22.051Z,37.15
2018-03-26T00:49:49.491Z,37.07
2018-03-26T00:52:17.077Z,33.27
2018-03-26T00:54:44.481Z,34.83
2018-03-26T00:57:11.899Z,32.90
2018-03-26T00:59:39.314Z,36.13
2018-03-26T01:02:06.742Z,42.25
2018-03-26T01:04:34.317Z,39.47
2018-03-26T01:07:01.743Z,35.55
2018-03-26T01:09:29.877Z,37.73
2018-03-26T01:11:58.105Z,39.33
2018-03-26T01:14:25.519Z,38.30
2018-03-26T01:16:52.938Z,37.90
2018-03-26T01:19:20.341Z,31.97
2018-03-26T01:21:47.755Z,38.93
2018-03-26T01:24:15.170Z,34.77
2018-03-26T01:26:42.599Z,37.97
2018-03-26T01:29:10.130Z,32.03
2018-03-26T01:31:37.544Z,30.08
2018-03-26T01:34:04.968Z,36.17
2018-03-26T01:36:32.378Z,34.47
2018-03-26T01:38:59.795Z,32.00
2018-03-26T01:41:27.220Z,35.20
2018-03-26T01:43:54.631Z,41.27
2018-03-26T01:46:22.051Z,34.55
2018-03-26T01:48:49.461Z,40.27
2018-03-26T01:51:16.882Z,31.83
2018-03-26T01:53:44.302Z,35.60
2018-03-26T01:56:11.714Z,35.33
2018-03-26T01:58:39.190Z,35.30
2018-03-26T02:01:06.655Z,40.90
2018-03-26T02:03:34.062Z,37.95
2018-03-26T02:06:01.500Z,35.17
2018-03-26T02:08:29.171Z,39.83
2018-03-26T02:10:56.589Z,30.13
2018-03-26T02:13:23.998Z,44.65
2018-03-26T02:15:51.442Z,41.93
2018-03-26T02:18:18.895Z,40.37
2018-03-26T02:20:46.298Z,37.22
2018-03-26T02:23:13.721Z,38.40
2018-03-26T02:25:41.139Z,38.73
2018-03-26T02:28:08.554Z,44.53
2018-03-26T02:30:35.970Z,34.47
2018-03-26T02:33:03.386Z,39.93
2018-03-26T02:35:31.170Z,30.52
2018-03-26T02:37:58.668Z,33.30
2018-03-26T02:40:26.075Z,28.35
2018-03-26T02:42:53.491Z,34.50
2018-03-26T02:45:20.906Z,39.50
2018-03-26T02:47:48.335Z,34.03
2018-03-26T02:50:15.734Z,39.73
2018-03-26T02:52:43.250Z,47.60
2018-03-26T02:55:10.667Z,49.57
2018-03-26T02:57:38.075Z,40.27
2018-03-26T03:00:08.286Z,41.47
2018-03-26T03:02:35.713Z,41.55
2018-03-26T03:05:03.124Z,43.23
2018-03-26T03:07:30.529Z,37.10
2018-03-26T03:09:57.946Z,33.97
2018-03-26T03:12:25.358Z,37.50
2018-03-26T03:14:52.769Z,32.83
2018-03-26T03:17:20.184Z,35.47
2018-03-26T03:19:47.592Z,38.75
2018-03-26T03:22:14.997Z,37.77
2018-03-26T03:24:42.422Z,41.57
2018-03-26T03:27:09.826Z,34.73
2018-03-26T03:29:37.249Z,47.13
2018-03-26T03:32:04.694Z,36.07
2018-03-26T03:34:33.122Z,41.67
2018-03-26T03:37:00.537Z,35.00
2018-03-26T03:39:27.946Z,39.50
2018-03-26T03:41:55.354Z,36.30
2018-03-26T03:44:22.790Z,40.80
2018-03-26T03:46:50.208Z,39.10
2018-03-26T03:49:17.629Z,38.60
2018-03-26T03:51:45.081Z,43.43
2018-03-26T03:54:12.519Z,36.90
2018-03-26T03:56:39.927Z,42.50
2018-03-26T03:59:07.618Z,41.70
2018-03-26T04:01:35.020Z,36.63
2018-03-26T04:04:02.455Z,38.10
2018-03-26T04:06:29.849Z,38.00
2018-03-26T04:08:57.278Z,40.55
2018-03-26T04:11:24.688Z,36.77
2018-03-26T04:13:52.103Z,38.77
2018-03-26T04:16:19.569Z,43.97
2018-03-26T04:18:46.996Z,39.97
2018-03-26T04:21:14.405Z,40.93
2018-03-26T04:23:41.821Z,38.35
2018-03-26T04:26:09.367Z,39.83
2018-03-26T04:28:36.774Z,34.00
2018-03-26T04:31:04.203Z,40.05
2018-03-26T04:33:31.669Z,33.77
2018-03-26T04:35:59.096Z,37.03
2018-03-26T04:38:26.778Z,35.67
2018-03-26T04:40:54.194Z,35.03
2018-03-26T04:43:21.792Z,41.60
2018-03-26T04:45:49.214Z,31.57
2018-03-26T04:48:16.618Z,32.50
2018-03-26T04:50:44.047Z,34.63
2018-03-26T04:53:11.453Z,35.80
2018-03-26T04:55:38.890Z,36.37
2018-03-26T04:58:06.479Z,35.33
2018-03-26T05:00:33.914Z,43.23
2018-03-26T05:03:01.331Z,46.43
2018-03-26T05:05:28.766Z,29.53
2018-03-26T05:07:56.178Z,38.80
2018-03-26T05:10:23.609Z,45.07
2018-03-26T05:12:51.014Z,49.33
2018-03-26T05:15:18.432Z,41.70
2018-03-26T05:17:45.853Z,42.30
2018-03-26T05:20:13.272Z,47.00
2018-03-26T05:22:40.698Z,48.37
2018-03-26T05:25:08.138Z,39.33
2018-03-26T05:27:35.545Z,47.43
2018-03-26T05:30:02.965Z,46.63
2018-03-26T05:32:30.379Z,57.60
2018-03-26T05:34:57.838Z,46.33
2018-03-26T05:37:25.255Z,53.17
2018-03-26T05:39:52.668Z,50.90
2018-03-26T05:42:20.084Z,48.10
2018-03-26T05:44:47.541Z,42.50
2018-03-26T05:47:15.029Z,45.13
2018-03-26T05:49:43.584Z,51.20
2018-03-26T05:52:11.008Z,43.97
2018-03-26T05:54:38.914Z,51.88
2018-03-26T05:57:06.355Z,44.93
2018-03-26T05:59:33.771Z,43.47
2018-03-26T06:02:01.196Z,47.55
2018-03-26T06:04:28.610Z,55.57
2018-03-26T06:06:56.025Z,52.20
2018-03-26T06:09:23.441Z,55.72
2018-03-26T06:11:50.873Z,51.77
2018-03-26T06:14:18.415Z,50.73
2018-03-26T06:16:57.781Z,48.70
2018-03-26T06:19:25.194Z,47.67
2018-03-26T06:21:52.670Z,64.63
2018-03-26T06:24:20.042Z,53.80
2018-03-26T06:26:47.454Z,53.70
2018-03-26T06:29:14.878Z,48.80
2018-03-26T06:31:42.362Z,51.90
2018-03-26T06:34:10.741Z,54.25
2018-03-26T06:36:43.696Z,45.30
2018-03-26T06:39:15.635Z,48.43
2018-03-26T06:41:43.034Z,51.30
2018-03-26T06:44:11.260Z,52.95
2018-03-26T06:46:38.639Z,54.20
2018-03-26T06:49:06.106Z,62.23
2018-03-26T06:51:33.519Z,53.50
2018-03-26T06:54:00.930Z,54.47
2018-03-26T06:56:28.355Z,49.03
2018-03-26T06:58:55.774Z,57.67
2018-03-26T07:01:23.183Z,50.13
2018-03-26T07:03:50.606Z,48.20
2018-03-26T07:06:18.006Z,54.63
2018-03-26T07:08:45.543Z,60.63
2018-03-26T07:11:13.566Z,50.83
2018-03-26T07:13:40.990Z,58.67
2018-03-26T07:16:08.407Z,54.23
2018-03-26T07:18:35.818Z,49.40
2018-03-26T07:21:03.236Z,52.47
2018-03-26T07:23:30.735Z,53.57
2018-03-26T07:25:58.156Z,51.20
2018-03-26T07:28:25.566Z,59.13
2018-03-26T07:30:52.972Z,51.23
2018-03-26T07:33:20.488Z,56.33
2018-03-26T07:35:47.912Z,58.28
2018-03-26T07:38:15.315Z,53.10
2018-03-26T07:40:42.791Z,55.75
2018-03-26T07:43:10.214Z,51.93
2018-03-26T07:45:37.632Z,49.53
2018-03-26T07:48:05.042Z,55.07
2018-03-26T07:50:32.450Z,47.47
2018-03-26T07:52:59.860Z,50.97
2018-03-26T07:55:27.275Z,56.65
2018-03-26T07:57:54.699Z,62.57
2018-03-26T08:00:22.118Z,50.27
2018-03-26T08:02:49.536Z,60.73
2018-03-26T08:05:16.955Z,54.90
2018-03-26T08:07:45.201Z,62.10
2018-03-26T08:10:12.897Z,51.73
2018-03-26T08:12:40.364Z,51.33
2018-03-26T08:15:07.790Z,51.93
2018-03-26T08:17:35.219Z,47.43
2018-03-26T08:20:02.642Z,45.20
2018-03-26T08:22:30.106Z,55.93
2018-03-26T08:24:57.526Z,55.53
2018-03-26T08:27:24.945Z,51.78
2018-03-26T08:29:52.369Z,51.17
2018-03-26T08:32:29.052Z,49.47
2018-03-26T08:35:13.528Z,53.03
2018-03-26T08:37:43.589Z,48.57
2018-03-26T08:40:29.464Z,48.42
2018-03-26T08:42:56.886Z,49.65
2018-03-26T08:45:24.316Z,50.80
2018-03-26T08:47:51.722Z,44.90
2018-03-26T08:50:19.973Z,45.23
2018-03-26T08:52:47.378Z,44.53
2018-03-26T08:55:14.791Z,48.90
2018-03-26T08:57:42.198Z,47.33
2018-03-26T09:00:09.611Z,50.50
2018-03-26T09:02:37.095Z,51.50
2018-03-26T09:05:04.545Z,54.50
2018-03-26T09:07:31.970Z,47.93
2018-03-26T09:09:59.450Z,54.13
2018-03-26T09:12:26.870Z,57.80
2018-03-26T09:14:54.305Z,50.87
2018-03-26T09:17:21.793Z,52.23
2018-03-26T09:19:49.538Z,48.80
2018-03-26T09:22:17.785Z,46.40
2018-03-26T09:24:45.189Z,52.40
2018-03-26T09:27:12.624Z,58.90
2018-03-26T09:29:40.024Z,53.00
2018-03-26T09:32:07.456Z,47.33
2018-03-26T09:34:34.861Z,56.42
2018-03-26T09:37:02.318Z,54.10
2018-03-26T09:39:29.742Z,49.13
2018-03-26T09:41:57.259Z,50.38
2018-03-26T09:44:24.672Z,57.10
2018-03-26T09:46:52.101Z,53.03
2018-03-26T09:49:19.532Z,49.47
2018-03-26T09:51:46.943Z,51.47
2018-03-26T09:54:14.354Z,54.30
2018-03-26T09:56:41.769Z,48.83
2018-03-26T09:59:09.176Z,49.90
2018-03-26T10:01:42.145Z,50.20
2018-03-26T10:04:09.584Z,57.43
2018-03-26T10:06:37.018Z,54.27
2018-03-26T10:09:04.439Z,62.43
2018-03-26T10:11:31.866Z,49.95
2018-03-26T10:13:59.282Z,52.27
2018-03-26T10:16:26.708Z,58.00
2018-03-26T10:18:54.124Z,52.22
2018-03-26T10:21:21.531Z,55.93
2018-03-26T10:23:49.425Z,55.50
2018-03-26T10:26:16.850Z,63.63
2018-03-26T10:28:44.261Z,48.70
2018-03-26T10:31:11.707Z,55.80
2018-03-26T10:33:39.120Z,52.50
2018-03-26T10:36:06.551Z,54.72
2018-03-26T10:38:33.970Z,55.00
2018-03-26T10:41:01.395Z,63.60
2018-03-26T10:43:28.869Z,49.70
2018-03-26T10:45:56.278Z,47.67
2018-03-26T10:48:23.704Z,46.37
2018-03-26T10:50:51.110Z,56.15
2018-03-26T10:53:18.531Z,49.23
2018-03-26T10:55:45.934Z,50.60
2018-03-26T10:58:13.366Z,46.90
2018-03-26T11:00:40.789Z,51.20
2018-03-26T11:03:08.218Z,49.40
2018-03-26T11:05:35.637Z,50.70
2018-03-26T11:08:03.063Z,48.60
2018-03-26T11:10:30.482Z,47.50
2018-03-26T11:12:57.905Z,50.73
2018-03-26T11:15:25.318Z,49.30
2018-03-26T11:17:52.757Z,56.53
2018-03-26T11:20:21.093Z,53.38
2018-03-26T11:22:48.518Z,48.03
2018-03-26T11:25:15.937Z,53.20
2018-03-26T11:27:43.374Z,49.43
2018-03-26T11:30:10.808Z,46.90
2018-03-26T11:32:38.313Z,48.22
2018-03-26T11:35:05.720Z,52.23
2018-03-26T11:37:33.142Z,42.00
2018-03-26T11:40:00.558Z,49.15
2018-03-26T11:42:28.022Z,41.77
2018-03-26T11:44:55.436Z,45.80
2018-03-26T11:47:23.022Z,47.33
2018-03-26T11:49:50.435Z,47.53
2018-03-26T11:52:17.866Z,44.13
2018-03-26T11:54:45.282Z,50.57
2018-03-26T11:57:12.699Z,46.23
2018-03-26T11:59:41.064Z,49.90
2018-03-26T12:02:08.479Z,44.83
2018-03-26T12:04:35.895Z,43.80
2018-03-26T12:07:03.305Z,41.03
2018-03-26T12:09:30.737Z,48.15
2018-03-26T12:11:58.187Z,46.20
2018-03-26T12:14:25.632Z,42.47
2018-03-26T12:16:53.084Z,50.40
2018-03-26T12:19:20.500Z,46.10
2018-03-26T12:21:47.907Z,42.70
2018-03-26T12:24:27.345Z,49.23
2018-03-26T12:26:54.751Z,47.50
2018-03-26T12:29:34.984Z,46.00
2018-03-26T12:32:02.502Z,44.10
2018-03-26T12:37:23.716Z,54.03
2018-03-26T12:39:51.139Z,48.80
2018-03-26T12:42:18.563Z,46.17
2018-03-26T12:44:57.846Z,48.23
2018-03-26T12:47:25.254Z,52.80
2018-03-26T12:49:52.684Z,49.90
2018-03-26T12:52:31.815Z,49.60
2018-03-26T12:54:59.236Z,42.33
2018-03-26T12:57:38.487Z,42.30
2018-03-26T13:00:05.975Z,48.25
2018-03-26T13:02:33.332Z,51.33
2018-03-26T13:05:00.750Z,46.87
2018-03-26T13:07:28.172Z,52.47
2018-03-26T13:09:55.614Z,47.27
2018-03-26T13:12:23.053Z,51.03
2018-03-26T13:14:50.456Z,48.80
2018-03-26T13:17:17.863Z,52.47
2018-03-26T13:19:45.288Z,53.93
2018-03-26T13:22:12.747Z,53.23
2018-03-26T13:24:40.166Z,52.90
2018-03-26T13:27:07.580Z,61.53
2018-03-26T13:29:35.004Z,50.23
2018-03-26T13:32:02.422Z,50.30
2018-03-26T13:34:29.865Z,47.08
2018-03-26T13:36:57.271Z,49.00
2018-03-26T13:39:25.242Z,51.90
2018-03-26T13:41:52.664Z,53.10
2018-03-26T13:44:20.074Z,52.53
2018-03-26T13:46:47.491Z,44.67
2018-03-26T13:49:14.917Z,48.40
2018-03-26T13:51:42.322Z,52.15
2018-03-26T13:54:09.737Z,47.72
2018-03-26T13:56:37.195Z,45.07
2018-03-26T13:59:04.606Z,45.40
2018-03-26T14:01:32.039Z,46.73
2018-03-26T14:03:59.455Z,51.53
2018-03-26T14:06:26.888Z,51.35
2018-03-26T14:09:06.039Z,42.97
2018-03-26T14:11:45.419Z,48.67
2018-03-26T14:14:24.617Z,46.80
2018-03-26T14:17:03.790Z,45.97
2018-03-26T14:19:31.265Z,46.90
2018-03-26T14:21:58.675Z,46.67
2018-03-26T14:24:26.572Z,47.78
2018-03-26T14:26:53.998Z,45.83
2018-03-26T14:29:21.419Z,51.75
2018-03-26T14:31:48.841Z,42.07
2018-03-26T14:34:16.260Z,41.03
2018-03-26T14:36:43.699Z,46.33
2018-03-26T14:39:11.101Z,42.67
2018-03-26T14:41:38.536Z,44.93
2018-03-26T14:44:05.990Z,43.30
2018-03-26T14:46:33.398Z,45.80
2018-03-26T14:49:00.903Z,41.77
2018-03-26T14:51:28.326Z,40.73
2018-03-26T14:53:55.727Z,38.20
2018-03-26T14:56:23.154Z,42.70
2018-03-26T14:58:50.554Z,42.80
2018-03-26T15:01:17.967Z,40.73
2018-03-26T15:03:45.377Z,43.07
2018-03-26T15:06:12.807Z,43.03
2018-03-26T15:08:40.211Z,43.73
2018-03-26T15:11:07.630Z,42.17
2018-03-26T15:13:35.047Z,38.90
2018-03-26T15:16:02.459Z,41.10
2018-03-26T15:18:29.889Z,44.27
2018-03-26T15:20:57.303Z,43.70
2018-03-26T15:23:24.710Z,51.50
2018-03-26T15:25:52.115Z,53.20
2018-03-26T15:28:19.534Z,44.07
2018-03-26T15:30:46.958Z,49.80
2018-03-26T15:33:14.372Z,44.83
2018-03-26T15:35:41.790Z,42.27
2018-03-26T15:38:09.226Z,50.87
2018-03-26T15:40:36.625Z,51.60
2018-03-26T15:43:04.058Z,59.00
2018-03-26T15:45:31.454Z,45.57
2018-03-26T15:47:59.251Z,44.57
2018-03-26T15:50:26.665Z,44.60
2018-03-26T15:52:54.077Z,44.77
2018-03-26T15:55:21.480Z,38.22
2018-03-26T15:57:48.888Z,43.17
2018-03-26T16:00:16.377Z,38.80
2018-03-26T16:02:49.283Z,41.67
2018-03-26T16:05:16.781Z,43.42
2018-03-26T16:07:44.193Z,44.20
2018-03-26T16:10:11.711Z,42.17
2018-03-26T16:12:39.114Z,42.93
2018-03-26T16:15:06.517Z,49.03
2018-03-26T16:17:33.982Z,45.80
2018-03-26T16:20:01.369Z,45.40
2018-03-26T16:22:28.805Z,48.20
2018-03-26T16:24:56.204Z,49.07
2018-03-26T16:27:23.617Z,48.37
2018-03-26T16:29:51.026Z,47.60
2018-03-26T16:32:18.508Z,44.10
2018-03-26T16:34:45.921Z,49.87
2018-03-26T16:37:13.344Z,46.13
2018-03-26T16:39:40.757Z,43.80
2018-03-26T16:45:14.773Z,44.25
2018-03-26T16:47:42.098Z,47.50
2018-03-26T16:50:09.505Z,62.87
2018-03-26T16:52:36.935Z,111.17
2018-03-26T16:55:04.347Z,55.70
2018-03-26T16:57:31.751Z,45.10
2018-03-26T16:59:59.157Z,44.13
2018-03-26T17:02:26.593Z,51.83
2018-03-26T17:04:54.007Z,39.00
2018-03-26T17:07:21.418Z,46.53
2018-03-26T17:09:48.824Z,41.13
2018-03-26T17:12:16.231Z,50.27
2018-03-26T17:14:43.646Z,45.60
2018-03-26T17:17:11.099Z,49.05
2018-03-26T17:19:38.529Z,41.43
2018-03-26T17:22:05.994Z,42.53
2018-03-26T17:24:33.381Z,36.30
2018-03-26T17:27:00.777Z,36.13
2018-03-26T17:29:28.197Z,37.30
2018-03-26T17:31:55.622Z,46.22
2018-03-26T17:34:23.049Z,39.50
2018-03-26T17:36:50.449Z,40.73
2018-03-26T17:39:17.872Z,39.57
2018-03-26T17:41:45.325Z,44.23
2018-03-26T17:44:12.759Z,40.03
2018-03-26T17:46:40.160Z,49.13
2018-03-26T17:49:07.582Z,48.13
2018-03-26T17:51:34.992Z,79.90
2018-03-26T17:54:02.401Z,63.97
2018-03-26T17:56:29.841Z,50.33
2018-03-26T17:58:57.249Z,40.90
2018-03-26T18:01:24.669Z,45.13
2018-03-26T18:03:52.077Z,48.25
2018-03-26T18:06:19.509Z,45.00
2018-03-26T18:08:46.913Z,45.90
2018-03-26T18:11:14.333Z,49.50
2018-03-26T18:13:41.741Z,47.23
2018-03-26T18:16:09.152Z,51.33
2018-03-26T18:18:36.569Z,50.40
2018-03-26T18:21:04.844Z,49.75
2018-03-26T18:23:32.236Z,47.20
2018-03-26T18:25:59.685Z,46.93
2018-03-26T18:28:27.100Z,43.67
2018-03-26T18:30:54.509Z,45.13
2018-03-26T18:33:21.928Z,43.30
2018-03-26T18:35:49.340Z,48.73
2018-03-26T18:38:16.756Z,46.90
2018-03-26T18:40:44.217Z,44.87
2018-03-26T18:43:11.618Z,46.10
2018-03-26T18:45:39.042Z,45.90
2018-03-26T18:48:06.444Z,54.77
2018-03-26T18:50:33.877Z,55.90
2018-03-26T18:53:01.322Z,57.10
2018-03-26T18:55:28.691Z,58.80
2018-03-26T18:57:56.118Z,60.45
2018-03-26T19:00:23.525Z,55.47
2018-03-26T19:02:50.954Z,54.60
2018-03-26T19:05:18.439Z,53.10
2018-03-26T19:07:45.864Z,57.62
2018-03-26T19:10:13.286Z,59.83
2018-03-26T19:12:40.694Z,52.57
2018-03-26T19:15:08.098Z,51.50
2018-03-26T19:17:35.517Z,61.73
2018-03-26T19:20:03.538Z,55.50
2018-03-26T19:22:30.946Z,56.97
2018-03-26T19:24:58.366Z,54.88
2018-03-26T19:27:25.776Z,55.77
2018-03-26T19:29:53.292Z,58.17
2018-03-26T19:32:20.774Z,65.50
2018-03-26T19:34:48.317Z,61.22
2018-03-26T19:37:15.879Z,53.50
2018-03-26T19:39:43.474Z,52.20
2018-03-26T19:42:11.100Z,61.10
2018-03-26T19:44:38.763Z,65.87
2018-03-26T19:47:06.362Z,57.85
2018-03-26T19:49:33.900Z,65.67
2018-03-26T19:52:01.387Z,69.57
2018-03-26T19:54:28.912Z,58.87
2018-03-26T19:56:56.369Z,52.50
2018-03-26T19:59:23.821Z,53.00
2018-03-26T20:01:51.279Z,57.53
2018-03-26T20:04:18.778Z,63.00
2018-03-26T20:06:46.467Z,66.50
2018-03-26T20:09:14.008Z,60.30
2018-03-26T20:11:41.550Z,65.10
2018-03-26T20:14:09.905Z,57.70
2018-03-26T20:16:38.301Z,54.07
2018-03-26T20:19:05.832Z,64.73
2018-03-26T20:21:33.320Z,75.50
2018-03-26T20:24:00.821Z,66.33
2018-03-26T20:26:28.301Z,62.30
2018-03-26T20:28:55.733Z,66.50
2018-03-26T20:31:23.137Z,60.10
2018-03-26T20:33:50.566Z,66.93
2018-03-26T20:36:17.974Z,75.03
2018-03-26T20:38:45.400Z,65.45
2018-03-26T20:41:12.806Z,76.70
2018-03-26T20:43:41.067Z,64.82
2018-03-26T20:46:08.485Z,76.70
2018-03-26T20:48:35.900Z,80.67
2018-03-26T20:51:03.338Z,67.93
2018-03-26T20:53:30.789Z,70.60
2018-03-26T20:55:58.199Z,64.70
2018-03-26T20:58:25.684Z,66.50
2018-03-26T21:00:53.089Z,63.77
2018-03-26T21:03:20.502Z,72.73
2018-03-26T21:05:47.914Z,77.03
2018-03-26T21:08:15.327Z,76.63
2018-03-26T21:10:42.762Z,71.13
2018-03-26T21:13:10.169Z,71.87
2018-03-26T21:15:37.586Z,78.67
2018-03-26T21:18:04.997Z,79.20
2018-03-26T21:20:32.401Z,81.20
2018-03-26T21:22:59.849Z,70.03
2018-03-26T21:25:27.295Z,78.83
2018-03-26T21:27:54.702Z,74.63
2018-03-26T21:30:22.184Z,88.37
2018-03-26T21:32:49.542Z,77.37
2018-03-26T21:35:16.970Z,88.60
2018-03-26T21:37:44.382Z,86.75
2018-03-26T21:40:11.802Z,89.50
2018-03-26T21:42:39.248Z,89.73
2018-03-26T21:45:06.663Z,98.43
2018-03-26T21:47:34.111Z,90.80
2018-03-26T21:50:01.539Z,91.33
2018-03-26T21:52:28.998Z,81.37
2018-03-26T21:54:56.425Z,92.45
2018-03-26T21:57:23.836Z,86.80
2018-03-26T22:24:17.954Z,97.62
2018-03-26T22:26:46.256Z,81.22
2018-03-26T22:29:13.711Z,80.90
2018-03-26T22:31:41.141Z,86.23
2018-03-26T22:34:08.551Z,85.60
2018-03-26T22:36:35.979Z,85.10
2018-03-26T22:39:03.464Z,90.32
2018-03-26T22:41:30.897Z,80.03
2018-03-26T22:43:58.311Z,94.67
2018-03-26T22:46:25.750Z,96.90
2018-03-26T22:48:53.174Z,89.83
2018-03-26T22:51:20.591Z,88.30
2018-03-26T22:53:48.007Z,90.38
2018-03-26T22:56:15.445Z,86.37
2018-03-26T22:58:42.960Z,88.43
2018-03-26T23:01:10.384Z,88.87
2018-03-26T23:03:37.786Z,89.43
2018-03-26T23:06:05.244Z,87.25
2018-03-26T23:08:32.655Z,90.40
2018-03-26T23:11:00.191Z,91.87
2018-03-26T23:13:27.597Z,98.83
2018-03-26T23:15:55.025Z,97.85
2018-03-26T23:18:22.461Z,98.10
2018-03-26T23:20:49.894Z,109.60
2018-03-26T23:23:17.824Z,90.32
2018-03-26T23:25:45.341Z,91.10
2018-03-26T23:28:12.775Z,93.47
2018-03-26T23:30:40.181Z,90.33
2018-03-26T23:33:07.608Z,99.93
2018-03-26T23:35:35.015Z,98.78
2018-03-26T23:38:02.475Z,98.17
2018-03-26T23:40:29.886Z,99.47
2018-03-26T23:42:57.321Z,111.90
2018-03-26T23:45:24.743Z,106.00
2018-03-26T23:47:52.258Z,110.43
2018-03-26T23:50:19.666Z,107.40
2018-03-26T23:52:47.152Z,102.53
2018-03-26T23:55:14.567Z,111.57
2018-03-26T23:57:42.006Z,118.27
